createdAt,value
2023-06-25T00:00:57.142Z,100811.94
2023-06-25T00:01:59.161Z,100807.47
2023-06-25T00:03:01.244Z,100816.91
2023-06-25T00:04:03.564Z,100816.28
2023-06-25T00:05:06.057Z,100811.59
2023-06-25T00:06:08.068Z,100814.59
2023-06-25T00:07:10.122Z,100815.44
2023-06-25T00:08:12.181Z,100814.84
2023-06-25T00:09:14.553Z,100817.03
2023-06-25T00:10:16.559Z,100813.16
2023-06-25T00:11:18.539Z,100811.97
2023-06-25T00:12:20.587Z,100816.66
2023-06-25T00:13:22.575Z,100810.03
2023-06-25T00:14:24.548Z,100811.13
2023-06-25T00:15:26.585Z,100807.00
2023-06-25T00:16:30.526Z,100816.44
2023-06-25T00:17:32.685Z,100814.25
2023-06-25T00:18:35.331Z,100811.72
2023-06-25T00:19:37.340Z,100804.22
2023-06-25T00:20:39.812Z,100795.03
2023-06-25T00:21:42.419Z,100797.22
2023-06-25T00:22:57.500Z,100788.03
2023-06-25T00:24:07.149Z,100791.91
2023-06-25T00:25:09.415Z,100794.06
2023-06-25T00:26:11.763Z,100793.25
2023-06-25T00:27:13.810Z,100796.00
2023-06-25T00:28:15.822Z,100787.06
2023-06-25T00:29:17.790Z,100785.75
2023-06-25T00:30:21.827Z,100786.59
2023-06-25T00:31:25.257Z,100795.78
2023-06-25T00:32:27.406Z,100788.41
2023-06-25T00:33:29.444Z,100784.31
2023-06-25T00:34:31.418Z,100781.75
2023-06-25T00:35:51.811Z,100792.28
2023-06-25T00:36:54.095Z,100783.59
2023-06-25T00:38:02.726Z,100782.97
2023-06-25T00:39:06.431Z,100785.28
2023-06-25T00:40:11.703Z,100778.28
2023-06-25T00:41:13.802Z,100775.13
2023-06-25T00:42:16.159Z,100780.44
2023-06-25T00:43:22.486Z,100782.38
2023-06-25T00:44:29.561Z,100781.28
2023-06-25T00:45:31.620Z,100778.50
2023-06-25T00:46:33.600Z,100784.06
2023-06-25T00:47:35.643Z,100787.09
2023-06-25T00:48:38.780Z,100784.91
2023-06-25T00:49:41.537Z,100788.19
2023-06-25T00:50:43.857Z,100787.56
2023-06-25T00:51:45.855Z,100798.94
2023-06-25T00:52:47.825Z,100800.25
2023-06-25T00:53:49.910Z,100808.59
2023-06-25T00:54:51.950Z,100801.47
2023-06-25T00:55:54.501Z,100801.09
2023-06-25T00:56:56.518Z,100796.63
2023-06-25T00:57:58.608Z,100801.59
2023-06-25T00:59:02.100Z,100794.34
2023-06-25T01:00:06.410Z,100794.09
2023-06-25T01:01:12.678Z,100798.56
2023-06-25T01:02:35.750Z,100795.56
2023-06-25T01:03:41.389Z,100797.13
2023-06-25T01:05:01.626Z,100802.06
2023-06-25T01:06:13.637Z,100795.91
2023-06-25T01:07:18.814Z,100803.41
2023-06-25T01:08:20.968Z,100799.28
2023-06-25T01:09:23.004Z,100807.88
2023-06-25T01:10:25.029Z,100800.88
2023-06-25T01:11:28.581Z,100794.47
2023-06-25T01:12:30.589Z,100798.56
2023-06-25T01:13:32.692Z,100802.44
2023-06-25T01:14:35.637Z,100797.97
2023-06-25T01:15:37.826Z,100797.38
2023-06-25T01:16:40.010Z,100800.97
2023-06-25T01:17:42.088Z,100798.44
2023-06-25T01:18:51.381Z,100801.47
2023-06-25T01:20:01.134Z,100802.06
2023-06-25T01:21:03.153Z,100800.03
2023-06-25T01:22:05.929Z,100799.16
2023-06-25T01:23:08.208Z,100805.34
2023-06-25T01:24:10.242Z,100805.94
2023-06-25T01:25:12.300Z,100802.91
2023-06-25T01:26:14.265Z,100794.47
2023-06-25T01:27:16.245Z,100799.16
2023-06-25T01:28:21.587Z,100797.25
2023-06-25T01:29:23.718Z,100797.25
2023-06-25T01:30:28.193Z,100796.16
2023-06-25T01:31:32.932Z,100797.13
2023-06-25T01:32:35.288Z,100795.56
2023-06-25T01:33:38.155Z,100793.00
2023-06-25T01:34:40.163Z,100799.16
2023-06-25T01:35:42.207Z,100794.34
2023-06-25T01:36:44.381Z,100792.41
2023-06-25T01:37:48.245Z,100790.00
2023-06-25T01:38:50.213Z,100792.41
2023-06-25T01:39:55.214Z,100793.50
2023-06-25T01:40:57.292Z,100797.13
2023-06-25T01:41:59.280Z,100800.75
2023-06-25T01:43:01.245Z,100800.13
2023-06-25T01:44:04.112Z,100795.44
2023-06-25T01:45:06.718Z,100803.28
2023-06-25T01:46:08.794Z,100804.97
2023-06-25T01:47:10.948Z,100806.41
2023-06-25T01:48:13.160Z,100797.84
2023-06-25T01:49:30.398Z,100807.63
2023-06-25T01:50:34.731Z,100804.84
2023-06-25T01:51:36.720Z,100803.41
2023-06-25T01:52:39.206Z,100794.22
2023-06-25T01:53:41.187Z,100798.94
2023-06-25T01:54:43.198Z,100795.31
2023-06-25T01:55:45.185Z,100798.69
2023-06-25T01:56:47.151Z,100792.66
2023-06-25T01:57:49.197Z,100789.88
2023-06-25T01:58:54.289Z,100790.97
2023-06-25T01:59:56.348Z,100787.34
2023-06-25T02:00:58.372Z,100793.75
2023-06-25T02:02:00.350Z,100788.44
2023-06-25T02:03:02.541Z,100796.53
2023-06-25T02:04:07.556Z,100789.03
2023-06-25T02:05:09.680Z,100797.25
2023-06-25T02:06:11.785Z,100800.97
2023-06-25T02:07:13.870Z,100799.53
2023-06-25T02:08:16.019Z,100795.31
2023-06-25T02:09:18.029Z,100793.97
2023-06-25T02:10:20.067Z,100791.44
2023-06-25T02:11:22.056Z,100795.31
2023-06-25T02:12:24.024Z,100793.63
2023-06-25T02:13:26.001Z,100793.97
2023-06-25T02:14:27.977Z,100793.50
2023-06-25T02:15:31.019Z,100794.09
2023-06-25T02:16:33.047Z,100793.88
2023-06-25T02:17:35.079Z,100801.59
2023-06-25T02:18:37.636Z,100793.88
2023-06-25T02:19:39.654Z,100793.00
2023-06-25T02:20:41.760Z,100793.88
2023-06-25T02:21:43.732Z,100794.69
2023-06-25T02:22:45.796Z,100798.56
2023-06-25T02:23:47.868Z,100798.19
2023-06-25T02:24:49.868Z,100805.44
2023-06-25T02:25:51.836Z,100812.69
2023-06-25T02:26:53.871Z,100804.00
2023-06-25T02:27:55.892Z,100803.53
2023-06-25T02:28:58.579Z,100802.91
2023-06-25T02:30:00.672Z,100806.78
2023-06-25T02:31:02.704Z,100800.63
2023-06-25T02:32:05.020Z,100797.59
2023-06-25T02:33:07.206Z,100795.91
2023-06-25T02:34:09.310Z,100789.50
2023-06-25T02:35:11.316Z,100793.00
2023-06-25T02:36:13.336Z,100795.78
2023-06-25T02:37:15.925Z,100804.97
2023-06-25T02:38:19.753Z,100798.31
2023-06-25T02:39:21.795Z,100804.13
2023-06-25T02:40:23.828Z,100802.41
2023-06-25T02:41:25.831Z,100797.94
2023-06-25T02:42:27.844Z,100799.03
2023-06-25T02:43:29.914Z,100797.94
2023-06-25T02:44:31.920Z,100795.19
2023-06-25T02:45:33.978Z,100793.00
2023-06-25T02:46:36.810Z,100785.16
2023-06-25T02:47:38.944Z,100792.63
2023-06-25T02:48:46.936Z,100793.84
2023-06-25T02:49:48.917Z,100797.22
2023-06-25T02:50:50.882Z,100783.59
2023-06-25T02:51:52.913Z,100793.00
2023-06-25T02:52:54.899Z,100789.75
2023-06-25T02:53:59.790Z,100795.91
2023-06-25T02:55:01.775Z,100791.44
2023-06-25T02:56:03.832Z,100783.72
2023-06-25T02:57:05.989Z,100795.66
2023-06-25T02:58:08.033Z,100789.28
2023-06-25T02:59:10.106Z,100788.41
2023-06-25T03:00:12.527Z,100787.09
2023-06-25T03:01:14.642Z,100786.25
2023-06-25T03:02:17.570Z,100788.78
2023-06-25T03:03:19.690Z,100786.00
2023-06-25T03:04:21.837Z,100786.00
2023-06-25T03:05:23.921Z,100781.06
2023-06-25T03:06:25.893Z,100789.63
2023-06-25T03:07:27.898Z,100779.25
2023-06-25T03:08:29.971Z,100786.72
2023-06-25T03:09:31.938Z,100775.88
2023-06-25T03:10:34.635Z,100775.38
2023-06-25T03:11:36.630Z,100775.38
2023-06-25T03:12:38.632Z,100777.81
2023-06-25T03:13:40.616Z,100781.19
2023-06-25T03:14:42.719Z,100767.53
2023-06-25T03:15:46.533Z,100775.38
2023-06-25T03:16:48.515Z,100773.47
2023-06-25T03:17:50.823Z,100775.16
2023-06-25T03:18:53.005Z,100774.31
2023-06-25T03:19:54.968Z,100774.78
2023-06-25T03:20:57.038Z,100774.78
2023-06-25T03:21:59.088Z,100778.16
2023-06-25T03:23:01.098Z,100769.00
2023-06-25T03:24:03.202Z,100773.94
2023-06-25T03:25:05.772Z,100772.25
2023-06-25T03:26:07.796Z,100772.84
2023-06-25T03:27:09.802Z,100765.59
2023-06-25T03:28:11.881Z,100768.16
2023-06-25T03:29:13.900Z,100767.91
2023-06-25T03:30:15.919Z,100763.44
2023-06-25T03:31:17.924Z,100767.06
2023-06-25T03:32:20.183Z,100773.47
2023-06-25T03:33:22.225Z,100772.84
2023-06-25T03:34:24.230Z,100768.75
2023-06-25T03:35:26.259Z,100764.03
2023-06-25T03:36:28.271Z,100766.56
2023-06-25T03:37:30.260Z,100773.47
2023-06-25T03:38:32.342Z,100773.22
2023-06-25T03:39:34.390Z,100761.25
2023-06-25T03:40:36.603Z,100764.66
2023-06-25T03:41:38.597Z,100761.63
2023-06-25T03:42:40.633Z,100772.84
2023-06-25T03:43:42.720Z,100764.75
2023-06-25T03:44:52.554Z,100767.31
2023-06-25T03:45:54.603Z,100776.22
2023-06-25T03:46:56.649Z,100778.28
2023-06-25T03:47:58.742Z,100776.13
2023-06-25T03:49:00.989Z,100776.72
2023-06-25T03:50:03.156Z,100765.38
2023-06-25T03:51:05.155Z,100773.44
2023-06-25T03:52:07.651Z,100776.00
2023-06-25T03:53:10.088Z,100773.56
2023-06-25T03:54:12.096Z,100777.19
2023-06-25T03:55:14.166Z,100777.44
2023-06-25T03:56:16.184Z,100780.34
2023-06-25T03:57:18.164Z,100783.72
2023-06-25T03:58:20.232Z,100784.56
2023-06-25T03:59:22.229Z,100787.94
2023-06-25T04:00:24.305Z,100792.41
2023-06-25T04:01:26.296Z,100795.78
2023-06-25T04:02:28.482Z,100789.38
2023-06-25T04:03:30.559Z,100796.88
2023-06-25T04:04:32.593Z,100789.38
2023-06-25T04:05:34.986Z,100793.00
2023-06-25T04:06:37.129Z,100794.44
2023-06-25T04:07:42.191Z,100787.81
2023-06-25T04:08:44.366Z,100791.19
2023-06-25T04:09:46.351Z,100792.63
2023-06-25T04:10:48.396Z,100787.31
2023-06-25T04:11:50.356Z,100788.53
2023-06-25T04:12:52.329Z,100795.53
2023-06-25T04:13:54.331Z,100792.50
2023-06-25T04:14:56.361Z,100791.41
2023-06-25T04:15:58.363Z,100795.28
2023-06-25T04:17:00.405Z,100793.09
2023-06-25T04:18:02.544Z,100786.47
2023-06-25T04:19:04.562Z,100792.88
2023-06-25T04:20:07.843Z,100789.00
2023-06-25T04:21:09.974Z,100790.69
2023-06-25T04:22:11.955Z,100793.81
2023-06-25T04:23:13.931Z,100791.88
2023-06-25T04:24:15.948Z,100790.34
2023-06-25T04:25:17.919Z,100800.59
2023-06-25T04:26:19.928Z,100796.75
2023-06-25T04:27:21.952Z,100795.91
2023-06-25T04:28:24.008Z,100804.22
2023-06-25T04:29:25.993Z,100802.31
2023-06-25T04:30:31.052Z,100798.78
2023-06-25T04:31:33.146Z,100799.63
2023-06-25T04:32:36.030Z,100801.06
2023-06-25T04:33:42.766Z,100789.94
2023-06-25T04:34:44.876Z,100799.97
2023-06-25T04:35:46.895Z,100803.00
2023-06-25T04:36:51.705Z,100800.81
2023-06-25T04:37:53.735Z,100799.13
2023-06-25T04:38:55.741Z,100800.59
2023-06-25T04:39:57.763Z,100810.38
2023-06-25T04:40:59.789Z,100803.97
2023-06-25T04:42:01.827Z,100800.44
2023-06-25T04:43:03.887Z,100800.78
2023-06-25T04:44:05.896Z,100799.69
2023-06-25T04:45:08.439Z,100805.03
2023-06-25T04:46:10.440Z,100799.22
2023-06-25T04:47:12.472Z,100790.63
2023-06-25T04:48:14.518Z,100800.66
2023-06-25T04:49:16.751Z,100799.47
2023-06-25T04:50:18.761Z,100809.75
2023-06-25T04:51:20.726Z,100803.44
2023-06-25T04:52:22.731Z,100794.84
2023-06-25T04:53:24.734Z,100804.03
2023-06-25T04:54:26.743Z,100796.88
2023-06-25T04:55:29.853Z,100798.94
2023-06-25T04:56:31.861Z,100794.69
2023-06-25T04:57:33.892Z,100800.88
2023-06-25T04:58:39.910Z,100795.91
2023-06-25T04:59:41.888Z,100793.97
2023-06-25T05:00:43.884Z,100792.63
2023-06-25T05:01:45.961Z,100801.31
2023-06-25T05:02:48.004Z,100796.09
2023-06-25T05:03:50.131Z,100805.88
2023-06-25T05:04:52.284Z,100803.69
2023-06-25T05:05:54.315Z,100803.94
2023-06-25T05:06:56.342Z,100799.22
2023-06-25T05:07:58.412Z,100811.78
2023-06-25T05:09:00.404Z,100804.88
2023-06-25T05:10:02.418Z,100804.41
2023-06-25T05:11:06.773Z,100805.25
2023-06-25T05:12:11.869Z,100799.69
2023-06-25T05:13:13.873Z,100802.56
2023-06-25T05:14:15.891Z,100804.50
2023-06-25T05:15:18.995Z,100808.72
2023-06-25T05:16:21.090Z,100807.97
2023-06-25T05:17:23.079Z,100806.03
2023-06-25T05:18:25.047Z,100803.50
2023-06-25T05:19:27.019Z,100809.41
2023-06-25T05:20:32.518Z,100808.56
2023-06-25T05:21:34.474Z,100808.31
2023-06-25T05:22:36.435Z,100811.94
2023-06-25T05:23:45.272Z,100810.00
2023-06-25T05:24:47.339Z,100816.75
2023-06-25T05:25:49.402Z,100802.59
2023-06-25T05:26:54.358Z,100810.19
2023-06-25T05:27:56.382Z,100817.44
2023-06-25T05:28:59.049Z,100818.41
2023-06-25T05:30:01.066Z,100811.75
2023-06-25T05:31:03.057Z,100814.03
2023-06-25T05:32:06.140Z,100813.78
2023-06-25T05:33:09.909Z,100814.97
2023-06-25T05:34:12.027Z,100808.06
2023-06-25T05:35:14.041Z,100813.38
2023-06-25T05:36:17.004Z,100813.72
2023-06-25T05:37:19.005Z,100819.63
2023-06-25T05:38:21.019Z,100814.38
2023-06-25T05:39:29.871Z,100813.03
2023-06-25T05:40:31.847Z,100816.16
2023-06-25T05:41:34.197Z,100815.91
2023-06-25T05:42:36.165Z,100810.94
2023-06-25T05:43:38.135Z,100807.63
2023-06-25T05:44:43.347Z,100815.75
2023-06-25T05:45:45.350Z,100811.00
2023-06-25T05:46:50.555Z,100811.00
2023-06-25T05:47:52.721Z,100814.72
2023-06-25T05:48:54.774Z,100817.75
2023-06-25T05:49:56.788Z,100814.72
2023-06-25T05:50:58.781Z,100812.78
2023-06-25T05:52:00.787Z,100815.91
2023-06-25T05:53:02.818Z,100814.22
2023-06-25T05:54:04.881Z,100818.44
2023-06-25T05:55:06.998Z,100813.47
2023-06-25T05:56:10.110Z,100820.97
2023-06-25T05:57:13.291Z,100817.09
2023-06-25T05:58:15.297Z,100816.56
2023-06-25T05:59:17.403Z,100814.13
2023-06-25T06:00:22.507Z,100819.78
2023-06-25T06:01:24.586Z,100815.88
2023-06-25T06:02:26.575Z,100813.69
2023-06-25T06:03:28.602Z,100816.22
2023-06-25T06:04:30.751Z,100819.00
2023-06-25T06:05:32.809Z,100821.81
2023-06-25T06:06:34.855Z,100823.22
2023-06-25T06:07:36.888Z,100813.44
2023-06-25T06:08:38.873Z,100817.41
2023-06-25T06:09:40.845Z,100819.94
2023-06-25T06:10:45.614Z,100816.63
2023-06-25T06:11:50.560Z,100819.69
2023-06-25T06:12:52.559Z,100819.94
2023-06-25T06:13:57.137Z,100821.38
2023-06-25T06:14:59.657Z,100820.84
2023-06-25T06:16:01.671Z,100814.19
2023-06-25T06:17:03.812Z,100809.19
2023-06-25T06:18:05.942Z,100818.97
2023-06-25T06:19:08.042Z,100812.56
2023-06-25T06:20:10.322Z,100806.72
2023-06-25T06:21:12.321Z,100815.19
2023-06-25T06:22:14.394Z,100810.78
2023-06-25T06:23:16.376Z,100811.13
2023-06-25T06:24:18.420Z,100810.34
2023-06-25T06:25:20.436Z,100805.38
2023-06-25T06:26:22.473Z,100808.75
2023-06-25T06:27:24.556Z,100808.47
2023-06-25T06:28:26.555Z,100824.09
2023-06-25T06:29:28.559Z,100819.44
2023-06-25T06:30:30.641Z,100813.34
2023-06-25T06:31:33.240Z,100811.41
2023-06-25T06:32:35.235Z,100818.16
2023-06-25T06:33:39.242Z,100814.59
2023-06-25T06:34:42.823Z,100809.06
2023-06-25T06:35:44.788Z,100818.28
2023-06-25T06:36:46.860Z,100811.84
2023-06-25T06:37:48.899Z,100814.72
2023-06-25T06:38:51.432Z,100816.66
2023-06-25T06:39:53.427Z,100816.47
2023-06-25T06:40:55.497Z,100816.97
2023-06-25T06:41:57.514Z,100818.94
2023-06-25T06:42:59.538Z,100816.97
2023-06-25T06:44:20.047Z,100815.03
2023-06-25T06:45:22.032Z,100817.19
2023-06-25T06:46:24.043Z,100821.31
2023-06-25T06:47:26.077Z,100819.72
2023-06-25T06:48:28.092Z,100821.91
2023-06-25T06:49:30.069Z,100824.44
2023-06-25T06:50:32.063Z,100823.84
2023-06-25T06:51:37.177Z,100821.41
2023-06-25T06:52:39.198Z,100824.19
2023-06-25T06:53:44.331Z,100811.66
2023-06-25T06:54:46.342Z,100817.25
2023-06-25T06:55:48.377Z,100819.19
2023-06-25T06:56:50.358Z,100819.25
2023-06-25T06:57:52.392Z,100821.00
2023-06-25T06:58:54.461Z,100825.22
2023-06-25T06:59:57.574Z,100819.69
2023-06-25T07:00:59.618Z,100813.91
2023-06-25T07:02:01.699Z,100809.44
2023-06-25T07:03:03.960Z,100814.22
2023-06-25T07:04:06.071Z,100817.88
2023-06-25T07:05:08.320Z,100821.81
2023-06-25T07:06:10.396Z,100821.81
2023-06-25T07:07:12.441Z,100810.38
2023-06-25T07:08:17.356Z,100809.06
2023-06-25T07:09:25.378Z,100809.38
2023-06-25T07:10:27.757Z,100819.16
2023-06-25T07:11:29.744Z,100813.63
2023-06-25T07:12:31.768Z,100811.69
2023-06-25T07:13:34.040Z,100814.53
2023-06-25T07:14:36.057Z,100814.59
2023-06-25T07:15:38.817Z,100813.47
2023-06-25T07:16:43.148Z,100828.59
2023-06-25T07:17:45.481Z,100820.78
2023-06-25T07:18:47.544Z,100816.63
2023-06-25T07:19:49.518Z,100812.19
2023-06-25T07:20:51.737Z,100815.84
2023-06-25T07:21:53.793Z,100809.16
2023-06-25T07:22:55.808Z,100810.03
2023-06-25T07:23:57.831Z,100813.38
2023-06-25T07:25:00.268Z,100810.03
2023-06-25T07:26:02.281Z,100808.66
2023-06-25T07:27:04.485Z,100810.09
2023-06-25T07:28:06.478Z,100810.34
2023-06-25T07:29:08.646Z,100807.19
2023-06-25T07:30:11.001Z,100810.31
2023-06-25T07:31:13.107Z,100806.72
2023-06-25T07:32:15.132Z,100807.56
2023-06-25T07:33:17.268Z,100807.56
2023-06-25T07:34:19.381Z,100809.19
2023-06-25T07:35:23.009Z,100810.34
2023-06-25T07:36:25.062Z,100806.97
2023-06-25T07:37:30.171Z,100801.44
2023-06-25T07:38:32.466Z,100804.81
2023-06-25T07:39:34.914Z,100810.41
2023-06-25T07:40:36.955Z,100808.19
2023-06-25T07:41:39.310Z,100804.31
2023-06-25T07:42:41.353Z,100799.56
2023-06-25T07:43:43.363Z,100800.97
2023-06-25T07:44:55.745Z,100801.28
2023-06-25T07:46:00.531Z,100801.03
2023-06-25T07:47:02.556Z,100800.47
2023-06-25T07:48:04.754Z,100795.16
2023-06-25T07:49:06.808Z,100799.44
2023-06-25T07:50:09.010Z,100795.56
2023-06-25T07:51:10.988Z,100791.41
2023-06-25T07:52:13.000Z,100795.88
2023-06-25T07:53:14.986Z,100791.44
2023-06-25T07:54:17.018Z,100799.81
2023-06-25T07:55:19.172Z,100795.06
2023-06-25T07:56:21.203Z,100790.63
2023-06-25T07:57:25.892Z,100792.03
2023-06-25T07:58:27.947Z,100806.31
2023-06-25T07:59:42.521Z,100789.28
2023-06-25T08:00:51.947Z,100797.34
2023-06-25T08:01:54.014Z,100790.09
2023-06-25T08:02:59.060Z,100798.78
2023-06-25T08:04:02.757Z,100804.38
2023-06-25T08:05:05.080Z,100802.16
2023-06-25T08:06:07.210Z,100799.03
2023-06-25T08:07:10.228Z,100795.09
2023-06-25T08:08:12.315Z,100806.31
2023-06-25T08:09:14.343Z,100801.84
2023-06-25T08:10:16.391Z,100798.19
2023-06-25T08:11:21.489Z,100798.78
2023-06-25T08:12:23.470Z,100800.72
2023-06-25T08:13:25.464Z,100802.94
2023-06-25T08:14:27.482Z,100794.56
2023-06-25T08:15:29.454Z,100801.00
2023-06-25T08:16:31.555Z,100794.28
2023-06-25T08:17:33.614Z,100797.63
2023-06-25T08:18:35.621Z,100801.84
2023-06-25T08:19:37.608Z,100799.63
2023-06-25T08:20:40.253Z,100799.63
2023-06-25T08:21:42.268Z,100800.47
2023-06-25T08:22:47.123Z,100802.41
2023-06-25T08:23:49.113Z,100803.56
2023-06-25T08:24:51.739Z,100807.47
2023-06-25T08:25:55.237Z,100804.66
2023-06-25T08:26:57.251Z,100803.81
2023-06-25T08:27:59.258Z,100806.63
2023-06-25T08:29:01.223Z,100809.69
2023-06-25T08:30:05.632Z,100808.56
2023-06-25T08:31:08.018Z,100816.38
2023-06-25T08:32:10.048Z,100814.72
2023-06-25T08:33:12.040Z,100818.03
2023-06-25T08:34:14.043Z,100811.91
2023-06-25T08:35:16.151Z,100819.47
2023-06-25T08:36:18.169Z,100817.19
2023-06-25T08:37:20.249Z,100816.63
2023-06-25T08:38:26.252Z,100813.81
2023-06-25T08:39:28.724Z,100812.38
2023-06-25T08:40:31.684Z,100817.41
2023-06-25T08:41:33.751Z,100819.09
2023-06-25T08:42:35.767Z,100809.00
2023-06-25T08:43:37.782Z,100811.81
2023-06-25T08:44:39.792Z,100816.28
2023-06-25T08:45:42.297Z,100811.81
2023-06-25T08:46:50.733Z,100811.81
2023-06-25T08:47:56.757Z,100815.72
2023-06-25T08:49:00.013Z,100813.19
2023-06-25T08:50:02.033Z,100803.69
2023-06-25T08:51:08.021Z,100804.00
2023-06-25T08:52:09.996Z,100805.69
2023-06-25T08:53:12.003Z,100807.63
2023-06-25T08:54:14.070Z,100806.84
2023-06-25T08:55:16.123Z,100812.22
2023-06-25T08:56:18.200Z,100807.19
2023-06-25T08:57:20.651Z,100809.19
2023-06-25T08:58:22.870Z,100805.84
2023-06-25T08:59:24.854Z,100803.06
2023-06-25T09:00:26.912Z,100808.97
2023-06-25T09:01:28.993Z,100807.31
2023-06-25T09:02:31.033Z,100801.75
2023-06-25T09:03:33.105Z,100800.09
2023-06-25T09:04:35.241Z,100803.78
2023-06-25T09:05:37.508Z,100808.31
2023-06-25T09:06:50.651Z,100799.09
2023-06-25T09:08:00.851Z,100801.66
2023-06-25T09:09:03.858Z,100804.75
2023-06-25T09:10:09.213Z,100803.03
2023-06-25T09:11:11.218Z,100804.16
2023-06-25T09:12:13.799Z,100807.25
2023-06-25T09:13:27.378Z,100809.50
2023-06-25T09:14:31.000Z,100797.50
2023-06-25T09:15:33.089Z,100804.50
2023-06-25T09:16:45.418Z,100801.16
2023-06-25T09:17:47.438Z,100808.44
2023-06-25T09:18:49.490Z,100804.53
2023-06-25T09:19:52.494Z,100807.34
2023-06-25T09:20:55.858Z,100797.53
2023-06-25T09:21:58.150Z,100804.28
2023-06-25T09:23:05.374Z,100805.41
2023-06-25T09:24:17.569Z,100800.94
2023-06-25T09:25:23.807Z,100801.22
2023-06-25T09:26:25.781Z,100797.00
2023-06-25T09:27:27.792Z,100806.81
2023-06-25T09:28:29.865Z,100798.69
2023-06-25T09:29:38.166Z,100799.53
2023-06-25T09:30:40.514Z,100794.78
2023-06-25T09:31:43.967Z,100793.13
2023-06-25T09:32:55.388Z,100783.88
2023-06-25T09:33:57.447Z,100790.59
2023-06-25T09:34:59.463Z,100790.59
2023-06-25T09:36:05.075Z,100790.88
2023-06-25T09:37:13.513Z,100779.94
2023-06-25T09:38:15.543Z,100779.09
2023-06-25T09:39:17.557Z,100783.28
2023-06-25T09:40:22.817Z,100779.88
2023-06-25T09:41:24.842Z,100783.19
2023-06-25T09:42:27.148Z,100784.78
2023-06-25T09:43:29.170Z,100784.75
2023-06-25T09:44:31.345Z,100783.03
2023-06-25T09:45:33.383Z,100781.09
2023-06-25T09:46:39.618Z,100788.97
2023-06-25T09:47:42.814Z,100780.28
2023-06-25T09:48:44.836Z,100781.38
2023-06-25T09:49:46.902Z,100783.63
2023-06-25T09:50:49.981Z,100776.91
2023-06-25T09:52:15.653Z,100771.28
2023-06-25T09:53:23.092Z,100774.38
2023-06-25T09:54:25.788Z,100778.03
2023-06-25T09:55:28.882Z,100774.34
2023-06-25T09:56:32.512Z,100775.44
2023-06-25T09:57:34.527Z,100770.63
2023-06-25T09:58:36.560Z,100767.28
2023-06-25T09:59:38.589Z,100768.66
2023-06-25T10:00:40.715Z,100773.34
2023-06-25T10:01:42.966Z,100769.56
2023-06-25T10:02:46.297Z,100768.16
2023-06-25T10:03:48.486Z,100766.47
2023-06-25T10:04:50.892Z,100769.03
2023-06-25T10:05:53.007Z,100774.47
2023-06-25T10:06:55.109Z,100773.66
2023-06-25T10:07:57.403Z,100767.25
2023-06-25T10:08:59.385Z,100774.00
2023-06-25T10:10:01.475Z,100774.31
2023-06-25T10:11:05.621Z,100770.66
2023-06-25T10:12:08.187Z,100776.25
2023-06-25T10:13:10.606Z,100776.53
2023-06-25T10:14:15.006Z,100770.41
2023-06-25T10:15:38.011Z,100777.94
2023-06-25T10:16:40.737Z,100780.22
2023-06-25T10:17:51.922Z,100781.88
2023-06-25T10:18:57.474Z,100777.59
2023-06-25T10:20:01.636Z,100776.72
2023-06-25T10:21:03.996Z,100768.00
2023-06-25T10:22:13.509Z,100772.25
2023-06-25T10:23:24.106Z,100765.25
2023-06-25T10:24:42.483Z,100772.03
2023-06-25T10:25:58.078Z,100776.28
2023-06-25T10:27:00.083Z,100772.63
2023-06-25T10:28:12.818Z,100768.97
2023-06-25T10:29:14.841Z,100767.25
2023-06-25T10:30:16.945Z,100777.09
2023-06-25T10:31:19.488Z,100774.31
2023-06-25T10:32:25.295Z,100773.81
2023-06-25T10:33:33.231Z,100775.19
2023-06-25T10:34:38.916Z,100778.03
2023-06-25T10:35:41.991Z,100769.31
2023-06-25T10:36:51.217Z,100768.78
2023-06-25T10:37:53.187Z,100771.88
2023-06-25T10:38:55.160Z,100772.69
2023-06-25T10:40:26.768Z,100771.56
2023-06-25T10:41:31.951Z,100774.69
2023-06-25T10:42:33.959Z,100765.66
2023-06-25T10:43:37.596Z,100768.47
2023-06-25T10:44:40.366Z,100772.69
2023-06-25T10:45:48.606Z,100771.84
2023-06-25T10:46:50.704Z,100775.47
2023-06-25T10:48:14.280Z,100766.25
2023-06-25T10:49:20.249Z,100768.50
2023-06-25T10:50:22.231Z,100771.28
2023-06-25T10:51:24.449Z,100768.19
2023-06-25T10:52:32.242Z,100766.97
2023-06-25T10:53:34.240Z,100763.59
2023-06-25T10:54:36.215Z,100775.09
2023-06-25T10:55:39.698Z,100762.47
2023-06-25T10:56:41.829Z,100770.31
2023-06-25T10:57:44.149Z,100771.16
2023-06-25T10:58:46.418Z,100773.94
2023-06-25T10:59:49.833Z,100768.31
2023-06-25T11:00:58.565Z,100769.72
2023-06-25T11:02:23.826Z,100771.69
2023-06-25T11:03:26.320Z,100766.88
2023-06-25T11:04:28.571Z,100766.16
2023-06-25T11:05:40.948Z,100762.59
2023-06-25T11:06:43.003Z,100766.25
2023-06-25T11:07:45.035Z,100764.69
2023-06-25T11:08:48.999Z,100760.97
2023-06-25T11:10:00.058Z,100760.06
2023-06-25T11:11:02.073Z,100755.84
2023-06-25T11:12:06.875Z,100756.91
2023-06-25T11:13:12.550Z,100748.38
2023-06-25T11:14:14.661Z,100756.31
2023-06-25T11:15:18.285Z,100759.09
2023-06-25T11:16:20.671Z,100749.72
2023-06-25T11:17:23.386Z,100752.16
2023-06-25T11:18:25.455Z,100753.34
2023-06-25T11:19:27.622Z,100753.28
2023-06-25T11:20:31.106Z,100744.50
2023-06-25T11:21:36.772Z,100745.31
2023-06-25T11:22:43.376Z,100749.97
2023-06-25T11:23:45.832Z,100740.63
2023-06-25T11:24:47.986Z,100738.75
2023-06-25T11:25:50.061Z,100740.53
2023-06-25T11:26:58.037Z,100739.22
2023-06-25T11:28:06.580Z,100744.13
2023-06-25T11:29:09.118Z,100743.91
2023-06-25T11:30:11.300Z,100738.56
2023-06-25T11:31:13.427Z,100739.97
2023-06-25T11:32:22.304Z,100747.03
2023-06-25T11:33:24.284Z,100748.19
2023-06-25T11:34:26.647Z,100739.81
2023-06-25T11:35:28.636Z,100750.50
2023-06-25T11:36:30.664Z,100735.09
2023-06-25T11:37:42.468Z,100739.63
2023-06-25T11:38:44.951Z,100739.06
2023-06-25T11:39:47.947Z,100738.28
2023-06-25T11:40:52.070Z,100732.97
2023-06-25T11:41:57.041Z,100733.81
2023-06-25T11:42:59.056Z,100736.06
2023-06-25T11:44:01.196Z,100734.16
2023-06-25T11:45:08.812Z,100733.56
2023-06-25T11:46:13.088Z,100732.44
2023-06-25T11:47:15.459Z,100727.66
2023-06-25T11:48:18.138Z,100725.38
2023-06-25T11:49:21.000Z,100718.31
2023-06-25T11:50:24.688Z,100726.75
2023-06-25T11:51:26.706Z,100722.47
2023-06-25T11:52:28.698Z,100730.81
2023-06-25T11:53:30.670Z,100722.66
2023-06-25T11:54:32.683Z,100725.09
2023-06-25T11:55:34.808Z,100723.88
2023-06-25T11:56:36.982Z,100723.47
2023-06-25T11:57:40.273Z,100727.59
2023-06-25T11:58:42.240Z,100722.41
2023-06-25T11:59:44.634Z,100727.75
2023-06-25T12:00:46.724Z,100724.59
2023-06-25T12:01:48.819Z,100722.25
2023-06-25T12:02:50.900Z,100723.81